Ana Sayfa
METAR-TAF:

METAR-TAF

Havaalanları :

Wheeling - Ohio County Airport

Wheeling, Batı Virginia, Amerika Birleşik Devletleri

Enlem: 40-10-13N, Boylam: 080-38-40W, yükseklik: 364 m

Güncel hava durumu gözlemi

Rapor saat 00:53 UTC de 26 dakika önce yapıldı.
Rüzgar kuzeydan 3 kt
Sıcaklık 18°C
Nem 64%
Basınç 1020 hPa
Görüş mesafesi: 16.1 km
Açık gökyüzü

METAR: KHLG 240053Z 36003KT 10SM CLR 18/11 A3013 RMK AO2 SLP201 T01830111

Saat: 21:19 (01:19 UTC)

Tahmin

Rapor saat 23:20 UTC de 1 saat ve 59 dakika önce yapıldı.
Ayın 24'si saat 00 UTC'den ayın 24'si saat 24 UTC'ye kadar geçerli Tahmin
Rüzgar kuzeydan 5 kt
Görüş mesafesi: 10 km
Açık gökyüzü
Ayın 24'si saat 1400 UTC'den
Rüzgar doğu/kuzeydoğudan 6 kt
Görüş mesafesi: 10 km
Açık gökyüzü

TAF: KHLG 232320Z 2400/2424 01005KT P6SM SKC FM241400 06006KT P6SM SKC

4.000'den fazla havaalanı için hava durumu gözlemleri ve tahminleri (METAR ve TAF raporları).

Kullanılabilir istasyonlar harita üzerinde sarı ve kırmızı noktalarla gösterilir.

İstasyonun adını görmek için fareyi noktanın üzerinde gezdirin.

Sonrasında hava gözlem ve tahminlerini görmek için tıklayın.

Haritayı değiştirmek için: yaklaştırmak için siyah artı işaretli yeşil düğmeye ve uzaklaştırmak için de eksi işaretli düğmeye hızla tıklayın; bitişik haritalar için yeşil okları kullanın.


METAR-TAF: